Time;durP1;ratioP1;P1;durP2;ratioP2;P2;SDS_P1;SDS_P2;PMS_P1;PMS_P2;Temp;Humidity;BMP_temperature;BMP_pressure;BME280_temperature;BME280_humidity;BME280_pressure;Samples;Min_cycle;Max_cycle;Signal;HPM_P1;HPM_P2
2022/06/23 00:02:38;;;;;;;4.35;1.98;;;;;;;16.93;56.32;99021.69;8430117;28;20043;-73
2022/06/23 00:06:45;;;;;;;6.57;2.30;;;;;;;16.88;56.33;99021.94;8470821;28;20436;-72
2022/06/23 00:11:04;;;;;;;7.35;2.45;;;;;;;16.84;56.69;99026.53;8472595;28;20047;-71
2022/06/23 00:15:05;;;;;;;10.82;3.10;;;;;;;16.82;56.78;99028.81;8478548;28;20035;-72
2022/06/23 00:19:12;;;;;;;9.20;2.50;;;;;;;16.77;56.89;99026.34;8478625;27;20409;-72
2022/06/23 00:23:34;;;;;;;14.63;2.75;;;;;;;16.75;57.05;99028.66;8463412;28;20412;-72
2022/06/23 00:27:39;;;;;;;5.28;2.10;;;;;;;16.70;57.04;99037.09;8471526;27;20412;-72
2022/06/23 00:31:43;;;;;;;6.38;2.60;;;;;;;16.65;57.28;99029.16;8489754;27;20520;-72
2022/06/23 00:35:48;;;;;;;5.28;2.95;;;;;;;16.61;57.09;99028.25;8508786;27;20099;-72
2022/06/23 00:40:00;;;;;;;5.38;2.50;;;;;;;16.56;57.21;99031.22;8496688;27;20118;-72
2022/06/23 00:44:06;;;;;;;8.93;2.55;;;;;;;16.53;57.38;99031.94;8506402;27;20112;-72
2022/06/23 00:48:11;;;;;;;11.10;2.90;;;;;;;16.44;57.84;99046.50;8449012;27;20053;-72
2022/06/23 00:52:25;;;;;;;7.72;2.50;;;;;;;16.42;57.67;99048.81;8518208;27;20073;-72
2022/06/23 00:56:32;;;;;;;6.53;2.40;;;;;;;16.41;57.76;99047.22;8419146;28;20036;-72
2022/06/23 01:00:39;;;;;;;5.60;2.60;;;;;;;16.37;57.97;99040.88;8406599;28;20502;-72
2022/06/23 01:04:47;;;;;;;5.57;2.63;;;;;;;16.31;58.05;99042.25;8409230;28;20520;-72
2022/06/23 01:08:53;;;;;;;8.30;2.42;;;;;;;16.30;58.12;99051.56;8405930;28;20053;-72
2022/06/23 01:13:17;;;;;;;5.68;2.42;;;;;;;16.25;58.08;99043.66;8401756;28;20055;-73
2022/06/23 01:17:28;;;;;;;4.10;2.38;;;;;;;16.21;58.08;99053.66;8405631;28;20533;-72
2022/06/23 01:21:33;;;;;;;5.75;2.65;;;;;;;16.18;58.12;99048.88;8396131;28;20068;-73
2022/06/23 01:25:49;;;;;;;7.32;2.40;;;;;;;16.15;58.06;99052.31;8417997;27;20405;-72
2022/06/23 01:29:57;;;;;;;5.47;2.17;;;;;;;16.14;58.13;99058.09;8512788;27;20067;-73
2022/06/23 01:34:03;;;;;;;6.20;2.20;;;;;;;16.12;57.89;99060.41;8480731;27;20106;-72
2022/06/23 01:38:10;;;;;;;6.93;2.40;;;;;;;16.06;58.16;99057.13;8497271;27;20100;-72
2022/06/23 01:42:48;;;;;;;3.25;2.08;;;;;;;16.01;58.38;99054.66;8529950;27;20077;-73
2022/06/23 01:46:52;;;;;;;7.30;2.22;;;;;;;15.98;58.23;99063.50;8525099;27;20044;-72
2022/06/23 01:50:55;;;;;;;8.30;2.40;;;;;;;15.95;58.44;99066.91;8460471;27;20057;-73
2022/06/23 01:55:04;;;;;;;4.57;2.55;;;;;;;15.88;58.35;99066.69;8527314;27;20049;-72
2022/06/23 01:59:39;;;;;;;9.32;2.28;;;;;;;15.81;58.58;99071.97;8498257;27;20034;-72
2022/06/23 02:03:42;;;;;;;5.85;2.25;;;;;;;15.74;59.08;99069.00;8506227;27;20054;-72
2022/06/23 02:08:01;;;;;;;4.18;2.15;;;;;;;15.70;59.20;99071.63;8491391;27;20043;-71
2022/06/23 02:12:02;;;;;;;6.50;2.60;;;;;;;15.68;59.23;99067.66;8508023;27;20042;-72
2022/06/23 02:16:24;;;;;;;6.90;2.50;;;;;;;15.65;59.38;99068.34;8514150;27;20047;-72
2022/06/23 02:20:37;;;;;;;6.75;2.20;;;;;;;15.61;59.35;99074.47;8486375;27;20408;-72
2022/06/23 02:24:50;;;;;;;6.40;2.47;;;;;;;15.57;59.57;99079.00;8517019;27;20624;-72
2022/06/23 02:29:12;;;;;;;10.23;3.15;;;;;;;15.55;59.54;99086.72;8497311;27;20555;-73
2022/06/23 02:33:22;;;;;;;4.97;2.30;;;;;;;15.49;59.84;99084.56;8513638;27;20047;-72
2022/06/23 02:37:50;;;;;;;6.82;2.20;;;;;;;15.44;60.18;99095.69;8520813;27;20126;-72
2022/06/23 02:42:00;;;;;;;4.38;2.60;;;;;;;15.42;60.17;99103.38;8513779;27;20043;-73
2022/06/23 02:46:10;;;;;;;7.80;2.50;;;;;;;15.40;60.13;99095.53;8456556;27;20050;-72
2022/06/23 02:50:19;;;;;;;6.20;2.30;;;;;;;15.36;60.43;99097.38;8473952;27;20051;-72
2022/06/23 02:54:23;;;;;;;8.07;2.75;;;;;;;15.34;60.83;99096.91;8502041;27;20586;-72
2022/06/23 02:58:41;;;;;;;8.20;2.75;;;;;;;15.33;60.90;99095.34;8514115;27;20051;-71
2022/06/23 03:03:04;;;;;;;6.18;2.63;;;;;;;15.35;60.87;99103.94;8504120;27;20043;-72
2022/06/23 03:07:21;;;;;;;7.60;2.70;;;;;;;15.32;61.19;99104.63;8485032;27;20043;-72
2022/06/23 03:11:51;;;;;;;5.13;2.50;;;;;;;15.31;61.87;99110.41;8505446;27;20055;-72
2022/06/23 03:16:15;;;;;;;6.25;2.40;;;;;;;15.36;61.51;99115.63;8488288;27;20043;-71
2022/06/23 03:20:22;;;;;;;5.63;2.75;;;;;;;15.40;61.56;99120.03;8473597;27;20502;-73
2022/06/23 03:24:28;;;;;;;7.05;2.58;;;;;;;15.44;61.58;99122.88;8476536;27;20082;-71
2022/06/23 03:28:38;;;;;;;5.32;2.40;;;;;;;15.47;61.71;99123.00;8435474;27;20039;-72
2022/06/23 03:32:45;;;;;;;5.85;2.60;;;;;;;15.49;61.90;99120.72;8476225;27;20051;-73
2022/06/23 03:36:52;;;;;;;10.90;2.58;;;;;;;15.50;62.30;99133.19;8453545;27;20657;-72
2022/06/23 03:45:36;;;;;;;7.63;2.72;;;;;;;15.57;62.23;99133.47;8488889;27;20054;-71
2022/06/23 03:49:58;;;;;;;8.55;2.58;;;;;;;15.63;62.63;99137.53;8518346;27;20065;-72
2022/06/23 03:54:11;;;;;;;5.70;2.80;;;;;;;15.70;62.24;99136.19;8485838;27;20492;-72
2022/06/23 03:58:30;;;;;;;7.43;3.35;;;;;;;15.79;62.67;99139.56;8498243;27;20035;-72
2022/06/23 04:02:39;;;;;;;4.78;2.67;;;;;;;15.91;62.20;99136.84;8505033;27;20125;-72
2022/06/23 04:06:43;;;;;;;10.90;3.33;;;;;;;15.98;62.35;99142.47;8507575;27;20122;-72
2022/06/23 04:10:44;;;;;;;6.65;2.60;;;;;;;16.04;62.37;99146.56;8518101;27;20086;-72
2022/06/23 04:14:53;;;;;;;8.48;2.95;;;;;;;16.13;62.09;99144.50;8480940;27;20051;-73
2022/06/23 04:18:54;;;;;;;11.67;3.23;;;;;;;16.22;61.75;99147.91;8489759;27;20084;-72
2022/06/23 04:23:21;;;;;;;7.88;2.63;;;;;;;16.23;62.23;99154.91;8521756;27;20050;-73
2022/06/23 04:27:28;;;;;;;5.20;2.70;;;;;;;16.34;61.60;99161.47;8500063;27;20067;-73
2022/06/23 04:31:32;;;;;;;7.07;3.17;;;;;;;16.39;62.16;99169.41;8533826;27;20039;-72
2022/06/23 04:35:38;;;;;;;11.70;3.42;;;;;;;16.44;62.14;99171.88;8514910;27;20476;-74
2022/06/23 04:39:43;;;;;;;6.03;2.92;;;;;;;16.53;61.87;99173.69;8504253;27;20046;-73
2022/06/23 04:43:47;;;;;;;13.20;3.42;;;;;;;16.59;62.47;99183.25;8490441;27;20039;-73
2022/06/23 04:47:51;;;;;;;8.50;3.28;;;;;;;16.68;62.66;99186.59;8503273;27;20038;-72
2022/06/23 04:52:21;;;;;;;10.00;3.33;;;;;;;16.77;62.30;99195.44;8501920;27;20125;-73
2022/06/23 04:56:32;;;;;;;8.05;2.78;;;;;;;16.88;62.95;99196.53;8325591;28;20502;-73
2022/06/23 05:00:42;;;;;;;7.75;3.38;;;;;;;16.98;63.44;99193.28;8314372;28;20046;-73
2022/06/23 05:04:45;;;;;;;10.55;3.30;;;;;;;17.10;62.84;99198.69;8321033;28;20060;-72
2022/06/23 05:08:47;;;;;;;15.50;2.90;;;;;;;17.22;62.63;99201.38;8319555;28;20064;-74
2022/06/23 05:12:52;;;;;;;8.13;3.00;;;;;;;17.31;62.93;99199.25;8300441;28;20619;-73
2022/06/23 05:17:16;;;;;;;7.22;2.80;;;;;;;17.44;62.63;99204.63;8302960;28;20124;-74
2022/06/23 05:21:24;;;;;;;6.57;2.60;;;;;;;17.55;62.25;99209.22;8322040;28;20041;-74
2022/06/23 05:25:34;;;;;;;4.05;2.10;;;;;;;17.65;62.13;99207.94;8310041;28;20080;-74
2022/06/23 05:29:49;;;;;;;8.70;2.30;;;;;;;17.77;61.73;99210.56;8304219;28;20474;-73
2022/06/23 05:33:53;;;;;;;5.53;2.15;;;;;;;17.88;61.44;99214.34;8438626;28;20360;-73
2022/06/23 05:38:19;;;;;;;4.35;2.22;;;;;;;18.02;60.67;99211.97;8446018;28;20048;-73
2022/06/23 05:42:26;;;;;;;9.38;2.25;;;;;;;18.15;60.23;99216.16;8444150;28;20058;-72
2022/06/23 05:46:28;;;;;;;9.45;2.25;;;;;;;18.26;59.95;99221.06;8448785;28;20050;-73
2022/06/23 05:50:54;;;;;;;6.63;2.63;;;;;;;18.39;59.93;99219.81;8439908;28;20047;-73
2022/06/23 05:54:57;;;;;;;8.95;2.90;;;;;;;18.53;59.39;99236.50;8352461;28;20519;-74
2022/06/23 05:59:33;;;;;;;6.65;2.47;;;;;;;18.69;58.53;99234.53;8322812;28;20049;-73
2022/06/23 06:03:44;;;;;;;6.60;2.20;;;;;;;18.79;58.25;99228.50;8286540;28;20623;-72
2022/06/23 06:07:44;;;;;;;6.55;2.45;;;;;;;18.91;57.73;99231.09;8265194;28;20045;-73
2022/06/23 06:11:48;;;;;;;8.98;2.33;;;;;;;19.04;57.78;99233.66;8276285;28;20442;-72
2022/06/23 06:15:52;;;;;;;9.77;2.63;;;;;;;19.17;57.61;99243.31;8292670;28;20181;-73
2022/06/23 06:19:54;;;;;;;33.03;3.67;;;;;;;19.30;57.12;99252.94;8292397;28;20041;-72
2022/06/23 06:24:04;;;;;;;10.98;3.00;;;;;;;19.40;57.30;99252.38;8291345;28;20136;-72
2022/06/23 06:28:27;;;;;;;6.38;2.40;;;;;;;19.52;57.10;99249.47;8288280;28;20054;-73
2022/06/23 06:32:34;;;;;;;12.50;2.40;;;;;;;19.66;56.13;99254.41;8378024;28;20044;-72
2022/06/23 06:36:43;;;;;;;5.28;2.38;;;;;;;19.76;56.07;99265.56;8397196;28;20040;-73
2022/06/23 06:40:46;;;;;;;7.67;2.60;;;;;;;19.87;56.65;99260.25;8459973;28;20047;-73
2022/06/23 06:44:50;;;;;;;7.35;2.47;;;;;;;20.01;55.41;99265.97;8443336;28;20036;-73
2022/06/23 06:48:50;;;;;;;6.80;2.10;;;;;;;20.13;54.98;99267.72;8460735;28;20047;-73
2022/06/23 06:52:52;;;;;;;7.85;2.40;;;;;;;20.21;54.32;99263.91;8446206;28;20120;-73
2022/06/23 07:07:49;;;;;;;7.03;2.10;;;;;;;20.74;51.76;99274.88;8491712;27;20395;-77
2022/06/23 07:11:59;;;;;;;7.60;2.20;;;;;;;20.84;51.97;99279.72;8491599;27;20051;-77
2022/06/23 07:16:17;;;;;;;7.80;2.50;;;;;;;20.94;51.35;99281.81;8457696;28;20043;-80
2022/06/23 07:20:26;;;;;;;9.43;2.20;;;;;;;21.07;50.96;99288.66;8458080;28;20101;-77
2022/06/23 07:24:33;;;;;;;7.38;2.38;;;;;;;21.20;50.65;99298.28;8464901;27;20040;-77
2022/06/23 07:28:40;;;;;;;6.55;2.08;;;;;;;21.36;49.38;99301.56;8472699;28;20101;-77
2022/06/23 07:32:57;;;;;;;9.10;2.38;;;;;;;21.46;48.96;99300.91;8507255;27;20482;-77
2022/06/23 07:36:59;;;;;;;5.18;2.13;;;;;;;21.62;47.99;99297.16;8490388;27;20486;-77
2022/06/23 07:41:27;;;;;;;6.38;1.90;;;;;;;21.71;47.19;99305.88;8490997;27;20477;-77
2022/06/23 07:45:35;;;;;;;5.95;1.83;;;;;;;21.82;48.45;99317.75;8490604;27;20514;-76
2022/06/23 07:49:35;;;;;;;3.90;1.63;;;;;;;21.92;47.49;99317.88;8487521;27;20513;-77
2022/06/23 07:53:48;;;;;;;6.25;2.03;;;;;;;22.05;46.99;99304.63;8488604;27;20051;-76
2022/06/23 07:57:49;;;;;;;3.15;1.40;;;;;;;22.18;46.07;99314.19;8482403;27;20056;-76
2022/06/23 08:02:31;;;;;;;3.83;1.80;;;;;;;22.32;45.87;99303.28;8481525;27;20043;-76
2022/06/23 08:06:33;;;;;;;10.85;1.80;;;;;;;22.47;44.96;99303.41;8492956;27;20050;-76
2022/06/23 08:10:35;;;;;;;3.30;1.73;;;;;;;22.60;44.92;99307.41;8455417;28;20058;-76
2022/06/23 08:16:49;;;;;;;4.53;1.92;;;;;;;22.78;45.80;99313.84;8462667;28;20054;-77
2022/06/23 08:19:24;;;;;;;5.50;1.90;;;;;;;22.98;44.82;99317.88;8461968;28;20044;-76
2022/06/23 08:23:27;;;;;;;3.67;1.50;;;;;;;23.09;44.25;99313.22;8428500;28;20040;-77
2022/06/23 08:27:29;;;;;;;6.05;1.55;;;;;;;23.29;43.51;99318.41;8464380;28;20047;-77
2022/06/23 08:31:30;;;;;;;5.32;1.90;;;;;;;23.42;42.96;99319.63;8464774;27;20043;-76
2022/06/23 08:35:36;;;;;;;5.50;1.80;;;;;;;23.55;42.27;99318.09;8463910;28;20126;-76
2022/06/23 08:39:47;;;;;;;4.03;1.38;;;;;;;23.67;41.54;99323.25;8465627;28;20467;-76
2022/06/23 08:43:54;;;;;;;7.72;1.85;;;;;;;23.85;40.78;99318.56;8465199;28;20479;-77
2022/06/23 08:48:18;;;;;;;6.60;1.42;;;;;;;24.03;41.08;99320.53;8465886;28;20048;-76
2022/06/23 08:52:46;;;;;;;5.18;1.67;;;;;;;24.12;39.64;99321.72;8465187;27;20048;-77
2022/06/23 08:57:09;;;;;;;7.90;1.52;;;;;;;24.29;39.45;99317.44;8460106;28;20052;-77
2022/06/23 09:01:36;;;;;;;4.03;1.70;;;;;;;24.40;39.60;99312.69;8454322;28;20554;-77
2022/06/23 09:05:49;;;;;;;4.07;1.48;;;;;;;24.53;38.45;99311.09;8459023;28;20071;-77
2022/06/23 09:09:55;;;;;;;8.32;2.00;;;;;;;24.60;37.47;99300.03;8427483;28;20554;-77
2022/06/23 09:14:08;;;;;;;6.28;1.90;;;;;;;24.79;38.46;99302.38;8477898;27;20048;-76
2022/06/23 09:18:30;;;;;;;3.90;1.63;;;;;;;24.99;38.25;99299.16;8392694;28;20109;-78
2022/06/23 09:22:40;;;;;;;3.85;1.45;;;;;;;25.03;36.85;99299.94;8393346;28;20049;-77
2022/06/23 09:26:55;;;;;;;4.63;1.50;;;;;;;25.20;37.02;99310.13;8393702;28;20542;-76
2022/06/23 09:31:09;;;;;;;5.25;1.70;;;;;;;25.31;36.85;99310.88;8376542;28;20132;-77
2022/06/23 09:35:38;;;;;;;7.45;1.90;;;;;;;25.47;37.03;99310.41;8393049;28;20037;-78
2022/06/23 09:39:44;;;;;;;4.53;1.60;;;;;;;25.61;36.70;99319.44;8392985;28;20522;-76
2022/06/23 09:44:16;;;;;;;6.20;1.83;;;;;;;25.59;35.36;99315.50;8392749;28;20060;-77
2022/06/23 09:48:40;;;;;;;4.03;1.70;;;;;;;25.62;34.64;99304.41;8408586;28;20050;-77
2022/06/23 09:52:52;;;;;;;5.32;1.67;;;;;;;25.57;35.81;99313.13;8452763;28;20482;-77
2022/06/23 09:57:20;;;;;;;6.32;1.77;;;;;;;25.88;37.19;99313.34;8461869;28;20067;-77
2022/06/23 10:01:46;;;;;;;6.82;1.90;;;;;;;26.03;36.13;99318.34;8468864;27;20126;-76
2022/06/23 10:05:53;;;;;;;10.10;1.77;;;;;;;26.07;34.66;99318.31;8461714;28;20458;-77
2022/06/23 10:10:03;;;;;;;1.95;1.33;;;;;;;26.12;34.67;99315.13;8463342;28;20089;-77
2022/06/23 10:14:42;;;;;;;5.03;2.10;;;;;;;26.33;34.80;99320.50;8461931;28;20055;-78
2022/06/23 10:18:52;;;;;;;4.27;1.63;;;;;;;26.55;35.59;99314.75;8463042;28;20051;-78
2022/06/23 10:22:55;;;;;;;5.45;1.70;;;;;;;26.65;35.14;99314.66;8462932;28;20075;-77
2022/06/23 10:27:40;;;;;;;3.88;1.70;;;;;;;26.82;35.37;99312.91;8462903;28;20054;-77
2022/06/23 10:32:04;;;;;;;4.40;1.58;;;;;;;26.90;35.63;99297.81;8459810;28;20040;-77
2022/06/23 10:36:34;;;;;;;3.55;1.60;;;;;;;27.11;35.46;99303.09;8461465;28;20047;-78
2022/06/23 10:40:44;;;;;;;4.97;1.50;;;;;;;27.26;35.19;99303.69;8462504;28;20079;-77
2022/06/23 10:45:21;;;;;;;8.35;1.55;;;;;;;27.41;33.79;99309.84;8462559;27;20051;-77
2022/06/23 10:49:34;;;;;;;4.15;2.10;;;;;;;27.39;33.66;99295.63;8451993;28;20093;-77
2022/06/23 10:53:53;;;;;;;6.25;1.77;;;;;;;27.44;33.75;99292.38;8461037;28;20066;-77
2022/06/23 10:58:00;;;;;;;;;;;;;;;27.66;34.23;99288.09;8462971;28;20054;-77
2022/06/23 11:02:16;;;;;;;12.15;1.83;;;;;;;27.92;34.03;99294.88;8462078;28;19972;-77
2022/06/23 11:06:29;;;;;;;4.32;1.70;;;;;;;28.12;33.95;99293.78;8462105;28;20089;-77
2022/06/23 11:10:45;;;;;;;59.42;2.80;;;;;;;28.24;33.15;99288.78;8459947;28;20134;-77
2022/06/23 11:15:18;;;;;;;5.20;1.70;;;;;;;28.21;32.67;99289.66;8461993;28;20047;-77
2022/06/23 11:19:42;;;;;;;3.03;1.70;;;;;;;28.42;33.75;99289.28;8456928;28;20479;-77
2022/06/23 11:24:09;;;;;;;4.93;1.45;;;;;;;28.53;33.52;99289.88;8447235;28;20051;-77
2022/06/23 11:28:10;;;;;;;5.80;1.77;;;;;;;28.59;33.21;99293.75;8448039;28;20051;-77
2022/06/23 11:32:17;;;;;;;3.08;1.65;;;;;;;28.53;32.56;99285.09;8461047;28;20036;-77
2022/06/23 11:36:31;;;;;;;6.50;1.80;;;;;;;28.39;31.67;99279.03;8443945;28;20040;-78
2022/06/23 11:40:35;;;;;;;3.38;1.52;;;;;;;28.45;33.17;99277.31;8474940;27;20074;-77
2022/06/23 11:44:36;;;;;;;11.13;1.92;;;;;;;28.75;32.53;99279.97;8460597;28;20146;-77
2022/06/23 11:49:13;;;;;;;4.72;1.60;;;;;;;28.81;32.33;99278.25;8458577;28;20044;-77
2022/06/23 11:53:42;;;;;;;5.32;1.70;;;;;;;28.96;32.07;99285.09;8467211;28;20043;-78
2022/06/23 11:58:02;;;;;;;8.48;1.77;;;;;;;28.91;31.15;99282.03;8454870;28;20131;-78
2022/06/23 12:02:03;;;;;;;4.22;1.77;;;;;;;28.67;31.72;99283.25;8453742;28;20454;-77
2022/06/23 12:06:29;;;;;;;2.72;1.30;;;;;;;28.70;31.48;99282.41;8450762;28;20050;-77
2022/06/23 12:10:32;;;;;;;3.90;1.73;;;;;;;28.86;31.28;99277.75;8456360;28;20055;-76
2022/06/23 12:14:35;;;;;;;7.90;2.20;;;;;;;29.22;31.88;99274.25;8462029;28;20043;-77
2022/06/23 12:18:43;;;;;;;5.25;1.60;;;;;;;29.18;30.56;99279.09;8478995;27;20044;-77
2022/06/23 12:22:56;;;;;;;4.55;1.70;;;;;;;29.06;31.66;99271.41;8463136;28;20139;-77
2022/06/23 12:27:06;;;;;;;10.20;1.98;;;;;;;29.30;31.64;99275.63;8458793;27;20058;-77
2022/06/23 12:31:25;;;;;;;2.20;1.40;;;;;;;29.38;30.87;99269.53;8459702;28;20040;-76
2022/06/23 12:35:45;;;;;;;22.20;2.10;;;;;;;29.67;31.45;99275.22;8452760;28;20413;-77
2022/06/23 12:40:03;;;;;;;4.65;1.50;;;;;;;29.63;31.37;99268.97;8448073;28;20123;-76
2022/06/23 12:44:32;;;;;;;4.95;1.90;;;;;;;29.79;31.37;99268.97;8457043;28;20047;-77
2022/06/23 12:48:42;;;;;;;6.63;2.10;;;;;;;29.87;31.11;99263.25;8470566;27;20479;-76
2022/06/23 12:53:14;;;;;;;4.00;1.70;;;;;;;29.77;30.56;99254.69;8459797;28;20039;-77
2022/06/23 12:57:31;;;;;;;4.03;1.65;;;;;;;29.82;30.64;99255.41;8455576;28;20044;-77
2022/06/23 13:02:02;;;;;;;3.00;1.55;;;;;;;29.85;31.18;99254.53;8459078;28;20044;-78
2022/06/23 13:06:30;;;;;;;3.50;1.35;;;;;;;29.94;29.58;99246.38;8427660;28;20079;-77
2022/06/23 13:10:36;;;;;;;2.47;1.27;;;;;;;30.02;29.93;99242.22;8426781;28;20055;-77
2022/06/23 13:14:48;;;;;;;10.15;2.17;;;;;;;30.18;30.24;99250.56;8424550;28;20048;-78
2022/06/23 13:19:06;;;;;;;4.20;1.73;;;;;;;30.25;30.36;99239.19;8409528;28;20040;-77
2022/06/23 13:23:39;;;;;;;4.18;1.60;;;;;;;30.18;30.50;99239.41;8361641;28;20051;-76
2022/06/23 13:27:46;;;;;;;4.63;1.42;;;;;;;30.34;30.90;99236.59;8258307;28;20124;-75
2022/06/23 13:32:00;;;;;;;3.92;1.73;;;;;;;30.37;30.67;99235.69;8262704;28;20208;-77
2022/06/23 13:36:10;;;;;;;6.05;1.60;;;;;;;30.49;30.20;99243.38;8257864;28;20050;-77
2022/06/23 13:40:33;;;;;;;3.92;1.50;;;;;;;31.94;27.50;99232.63;8212560;28;20054;-76
2022/06/23 13:44:46;;;;;;;2.25;1.40;;;;;;;33.34;26.31;99238.44;8262046;28;20425;-77
2022/06/23 13:48:57;;;;;;;3.65;1.50;;;;;;;34.18;25.62;99236.19;8228774;28;20057;-76
2022/06/23 13:53:06;;;;;;;2.42;1.35;;;;;;;35.53;23.98;99237.28;8300844;28;20063;-77
2022/06/23 13:57:13;;;;;;;3.58;1.60;;;;;;;35.59;23.53;99218.53;8356128;28;20053;-78
2022/06/23 14:01:40;;;;;;;4.00;1.40;;;;;;;35.75;23.68;99225.03;8359303;28;20164;-77
2022/06/23 14:06:03;;;;;;;4.10;1.65;;;;;;;35.68;23.49;99226.19;8452687;28;20052;-76
2022/06/23 14:10:10;;;;;;;5.13;1.60;;;;;;;35.75;23.26;99230.66;8453249;28;20097;-77
2022/06/23 14:14:26;;;;;;;5.30;1.40;;;;;;;37.10;21.88;99225.25;8432420;28;20090;-76
2022/06/23 14:18:36;;;;;;;3.22;1.42;;;;;;;37.64;20.16;99223.03;8442122;28;20302;-76
2022/06/23 14:22:44;;;;;;;2.28;1.20;;;;;;;38.59;20.54;99222.25;8454584;28;20051;-78
2022/06/23 14:27:00;;;;;;;3.00;1.70;;;;;;;38.69;19.47;99225.66;8456513;28;20047;-77
2022/06/23 14:31:10;;;;;;;2.95;1.58;;;;;;;39.42;19.59;99225.06;8473070;27;20525;-77
2022/06/23 14:35:33;;;;;;;2.25;1.50;;;;;;;40.53;18.93;99218.47;8502206;27;20152;-76
2022/06/23 14:39:47;;;;;;;3.88;1.35;;;;;;;40.58;18.52;99220.53;8500472;27;20099;-78
2022/06/23 14:44:29;;;;;;;4.95;1.70;;;;;;;39.19;19.61;99212.03;8492386;27;20427;-78
2022/06/23 14:48:39;;;;;;;4.43;1.52;;;;;;;39.22;19.66;99206.16;8420570;28;20054;-78
2022/06/23 14:52:50;;;;;;;5.32;1.50;;;;;;;38.73;19.98;99212.88;8419893;28;20056;-76
2022/06/23 14:57:29;;;;;;;3.63;1.30;;;;;;;38.64;19.90;99207.41;8406985;28;20062;-79
2022/06/23 15:01:59;;;;;;;5.40;1.65;;;;;;;38.42;20.40;99198.69;8257530;28;20050;-77
2022/06/23 15:06:05;;;;;;;2.45;1.50;;;;;;;37.30;21.66;99198.41;8220838;28;20055;-78
2022/06/23 15:10:41;;;;;;;2.90;1.60;;;;;;;36.32;21.96;99192.81;8228576;28;20061;-77
2022/06/23 15:15:03;;;;;;;7.13;1.52;;;;;;;35.76;23.18;99192.88;8227306;28;20051;-78
2022/06/23 15:19:14;;;;;;;4.40;1.65;;;;;;;35.67;23.44;99195.75;8284080;28;20057;-78
2022/06/23 15:23:21;;;;;;;5.13;1.73;;;;;;;35.94;22.81;99192.78;8312957;28;20133;-78
2022/06/23 15:27:29;;;;;;;;;;;;;;;37.26;21.68;99192.22;8330567;28;20089;-78
2022/06/23 15:31:55;;;;;;;3.83;1.88;;;;;;;37.93;20.25;99194.72;8339930;28;19932;-79
2022/06/23 15:35:59;;;;;;;4.20;1.60;;;;;;;38.26;20.63;99193.63;8343976;27;20039;-79
2022/06/23 15:40:15;;;;;;;6.10;1.73;;;;;;;38.77;18.70;99188.03;8445661;27;20052;-78
2022/06/23 15:44:50;;;;;;;3.05;1.50;;;;;;;37.38;20.31;99188.31;8448402;27;20391;-79
2022/06/23 15:48:58;;;;;;;3.40;1.55;;;;;;;36.24;21.98;99188.81;8441056;27;20517;-78
2022/06/23 15:53:15;;;;;;;8.68;1.98;;;;;;;35.48;22.81;99178.97;8442751;27;20051;-78
2022/06/23 15:57:33;;;;;;;3.10;1.60;;;;;;;34.39;23.39;99184.84;8471855;27;20090;-78
2022/06/23 16:01:53;;;;;;;3.08;1.60;;;;;;;33.65;24.65;99183.16;8440511;27;20051;-78
2022/06/23 16:06:04;;;;;;;3.28;1.25;;;;;;;32.64;25.57;99195.06;8442991;27;20052;-79
2022/06/23 16:10:21;;;;;;;4.47;1.50;;;;;;;32.48;25.69;99181.28;8442259;27;20056;-77
2022/06/23 16:14:27;;;;;;;2.90;1.77;;;;;;;32.10;26.25;99185.00;8438463;27;20048;-77
2022/06/23 16:18:32;;;;;;;6.45;1.45;;;;;;;31.64;26.34;99185.78;8443975;27;20052;-79
2022/06/23 16:22:33;;;;;;;4.38;1.70;;;;;;;31.82;26.26;99185.97;8441050;27;20069;-77
2022/06/23 16:26:43;;;;;;;4.00;1.60;;;;;;;31.65;26.44;99187.34;8437189;27;20064;-77
2022/06/23 16:30:51;;;;;;;3.70;1.67;;;;;;;33.16;25.09;99182.34;8443862;27;20573;-76
2022/06/23 16:35:10;;;;;;;2.67;1.45;;;;;;;32.67;25.65;99181.00;8439395;27;20510;-76
2022/06/23 16:39:32;;;;;;;4.15;2.00;;;;;;;31.74;27.51;99184.66;8437749;27;20076;-77
2022/06/23 16:43:47;;;;;;;4.75;1.65;;;;;;;30.85;28.35;99175.47;8441046;27;20419;-77
2022/06/23 16:48:01;;;;;;;2.67;1.70;;;;;;;31.02;27.66;99168.56;8440979;27;20052;-76
2022/06/23 16:52:27;;;;;;;2.72;1.65;;;;;;;32.18;26.35;99175.19;8437853;27;20097;-77
2022/06/23 16:56:33;;;;;;;6.18;1.52;;;;;;;33.31;24.83;99186.19;8440343;27;20076;-77
2022/06/23 17:01:06;;;;;;;4.07;1.50;;;;;;;32.17;26.11;99179.19;8467164;27;20063;-78
2022/06/23 17:05:19;;;;;;;2.28;1.60;;;;;;;30.65;27.89;99177.66;8378348;28;20186;-77
2022/06/23 17:09:44;;;;;;;4.07;1.70;;;;;;;29.51;29.33;99177.81;8392752;28;20056;-78
2022/06/23 17:13:48;;;;;;;4.88;1.63;;;;;;;28.74;30.45;99178.34;8393046;28;20049;-78
2022/06/23 17:18:13;;;;;;;4.70;1.50;;;;;;;28.36;30.77;99179.88;8378418;28;20505;-77
2022/06/23 17:22:26;;;;;;;7.22;1.90;;;;;;;28.09;31.31;99177.97;8391793;28;20055;-79
2022/06/23 17:26:38;;;;;;;21.83;2.17;;;;;;;27.80;31.37;99188.00;8375429;28;20526;-78
2022/06/23 17:30:51;;;;;;;5.47;1.40;;;;;;;27.59;31.73;99188.38;8407187;28;20052;-78
2022/06/23 17:34:59;;;;;;;5.25;1.80;;;;;;;27.49;32.23;99183.75;8393449;28;20044;-77
2022/06/23 17:43:47;;;;;;;4.60;1.70;;;;;;;26.87;33.47;99193.31;8438868;27;20528;-78
2022/06/23 17:48:23;;;;;;;2.70;1.60;;;;;;;26.68;33.66;99185.63;8473231;27;20048;-79
2022/06/23 17:52:27;;;;;;;4.13;1.60;;;;;;;26.62;33.96;99187.28;8424030;28;20047;-77
2022/06/23 17:56:31;;;;;;;3.65;1.80;;;;;;;26.41;34.75;99194.66;8425819;28;20064;-79
2022/06/23 18:00:41;;;;;;;1.73;1.50;;;;;;;26.27;35.03;99200.34;8422980;28;20569;-78
2022/06/23 18:05:00;;;;;;;4.28;1.80;;;;;;;26.18;35.10;99202.75;8419967;28;20060;-78
2022/06/23 18:09:14;;;;;;;5.15;1.90;;;;;;;25.95;35.43;99202.63;8406294;28;20087;-78
2022/06/23 18:13:15;;;;;;;4.57;2.05;;;;;;;25.89;35.58;99207.00;8424943;28;20101;-78
2022/06/23 18:17:27;;;;;;;3.28;1.60;;;;;;;25.84;35.65;99205.47;8422277;28;20152;-78
2022/06/23 18:21:54;;;;;;;9.52;2.42;;;;;;;25.73;35.95;99203.97;8404584;28;20479;-79
2022/06/23 18:25:59;;;;;;;27.13;3.75;;;;;;;25.50;36.10;99207.28;8419733;28;20556;-79
2022/06/23 18:30:11;;;;;;;9.10;2.10;;;;;;;25.34;36.80;99210.53;8429212;28;20441;-78
2022/06/23 18:34:25;;;;;;;5.43;1.98;;;;;;;25.24;36.76;99212.19;8432687;28;20559;-78
2022/06/23 18:38:32;;;;;;;5.53;2.17;;;;;;;25.06;37.40;99210.72;8433087;27;20048;-78
2022/06/23 18:42:55;;;;;;;5.20;2.33;;;;;;;24.95;37.03;99210.00;8433201;28;20051;-80
2022/06/23 18:47:21;;;;;;;7.13;2.03;;;;;;;24.82;37.79;99204.88;8439239;28;20616;-79
2022/06/23 18:51:28;;;;;;;5.90;2.30;;;;;;;24.67;38.11;99211.66;8431206;28;20086;-79
2022/06/23 18:55:34;;;;;;;5.93;2.17;;;;;;;24.52;38.19;99217.63;8430459;28;20594;-78
2022/06/23 18:59:38;;;;;;;8.93;2.00;;;;;;;24.39;38.42;99206.22;8433018;28;20048;-78
2022/06/23 19:03:59;;;;;;;4.05;2.08;;;;;;;24.22;38.55;99218.06;8436127;28;20051;-78
2022/06/23 19:08:04;;;;;;;14.40;2.58;;;;;;;24.11;38.67;99218.06;8417908;28;20423;-77
2022/06/23 19:12:11;;;;;;;10.55;1.92;;;;;;;23.94;38.99;99219.69;8399750;28;20118;-77
2022/06/23 19:16:28;;;;;;;6.57;2.10;;;;;;;23.79;38.82;99215.34;8421314;28;20083;-77
2022/06/23 19:21:04;;;;;;;5.97;2.10;;;;;;;23.70;38.54;99228.72;8423948;28;20047;-78
2022/06/23 19:25:42;;;;;;;3.33;1.92;;;;;;;23.62;38.49;99223.63;8424579;28;20067;-78
2022/06/23 19:30:28;;;;;;;6.78;2.03;;;;;;;23.50;38.59;99227.53;8429666;28;20052;-77
2022/06/23 19:34:33;;;;;;;3.42;1.80;;;;;;;23.41;38.40;99235.38;8321294;28;20060;-78
2022/06/23 19:38:41;;;;;;;4.22;1.67;;;;;;;23.33;38.50;99231.00;8288634;28;20049;-78
2022/06/23 19:43:24;;;;;;;2.83;1.52;;;;;;;23.22;38.96;99232.94;8324418;28;20102;-78
2022/06/23 19:47:31;;;;;;;3.97;1.92;;;;;;;23.06;39.32;99225.81;8352569;28;20049;-78
2022/06/23 19:51:34;;;;;;;4.50;1.55;;;;;;;22.94;39.57;99228.94;8333716;28;20045;-81
2022/06/23 19:55:38;;;;;;;4.00;2.42;;;;;;;22.80;40.24;99223.38;8353052;28;20041;-78
2022/06/23 20:00:04;;;;;;;15.38;2.88;;;;;;;22.68;41.33;99215.44;8353657;28;20083;-78
2022/06/23 20:04:11;;;;;;;4.40;2.20;;;;;;;22.52;41.97;99228.72;8318832;28;20060;-77
2022/06/23 20:08:18;;;;;;;6.25;1.95;;;;;;;22.38;42.57;99225.88;8359392;28;20483;-78
2022/06/23 20:12:31;;;;;;;4.88;2.00;;;;;;;22.29;43.25;99226.22;8451894;27;20040;-77
2022/06/23 20:16:43;;;;;;;5.45;2.20;;;;;;;22.14;43.58;99213.56;8451629;27;20039;-77